Latest Weather Observations for Casey*

IDT60801

Issued at 1:05 pm EDT Saturday 1 November 2014 (issued every 30 minutes, with the page automatically refreshed every 10 minutes)

About weather observations | Map of weather stations | Latest weather observations for ANT | Other Formats
Station Details ID: 300017 Name: CASEY Lat: -66.28 Lon: 110.52 Height: 40.0 m
Data from the previous 72 hours. | See also: Recent months at Casey*
Date/Time
EDT
Temp
°C
App
Temp
°C
Dew
Point
Rel
Hum
%
Delta-T
°C
Wind Press
QNH
hPa
Press
MSL
hPa
Rain
since 9 am
mm
Dir
 
Spd
km/h
Gust
km/h
Spd
kts
Gust
kts
01/01:00pm -7.2 -14.9 -11.9 69 - NNE 24 30 13 16 992.2 - -
01/12:30pm -7.4 -14.4 -11.7 71 - NNE 20 28 11 15 992.0 - -
01/12:00pm -7.5 -15.2 -11.8 71 - NNE 24 32 13 17 991.9 - -
01/11:30am -7.7 -15.9 -12.4 69 - NNE 26 33 14 18 991.8 - -
01/11:00am -8.3 -17.3 -13.0 69 - NE 30 32 16 17 991.8 992.1 -
01/10:30am -8.0 -16.2 -12.5 70 - NE 26 32 14 17 991.8 - -
01/10:00am -8.0 -16.2 -12.3 71 - NNE 26 33 14 18 991.7 - -
01/09:30am -8.2 -16.7 -12.0 74 - NE 28 33 15 18 991.6 - -
01/09:00am -8.6 -17.1 -11.7 78 - NE 28 32 15 17 991.5 - -
01/08:30am -8.6 -15.6 -11.9 77 - NNE 20 24 11 13 991.5 - -
01/08:00am -9.0 -16.0 -12.4 76 - NE 20 32 11 17 991.4 991.7 -
01/07:30am -7.8 -13.8 -11.8 73 - NNE 15 20 8 11 991.4 - -
01/07:00am -7.7 -14.5 -11.5 74 - N 19 24 10 13 991.3 - -
01/06:30am -7.6 -14.4 -12.5 68 - NNW 19 26 10 14 991.3 - -
01/06:00am -7.5 -14.0 -12.9 65 - NNW 17 24 9 13 991.3 - -
01/05:30am -7.4 -14.3 -13.0 64 - NNW 19 24 10 13 991.3 - -
01/05:00am -7.4 -13.9 -13.2 63 - NW 17 22 9 12 991.3 991.7 -
01/04:30am -7.3 -14.2 -14.1 58 - NW 19 24 10 13 991.3 - -
01/04:00am -7.2 -14.2 -14.5 56 - WNW 19 22 10 12 991.3 - -
01/03:30am -7.2 -13.7 -12.8 64 - NW 17 20 9 11 991.3 - -
01/03:00am -6.9 -13.3 -12.3 65 - WNW 17 20 9 11 991.1 - -
01/02:30am -6.6 -13.0 -11.9 66 - WNW 17 20 9 11 991.1 - -
01/02:00am -6.6 -13.0 -11.3 69 - WNW 17 19 9 10 990.9 991.3 -
01/01:30am -6.3 -12.3 -10.7 71 - WNW 15 20 8 11 990.9 - -
01/01:00am -6.1 -12.1 -10.8 69 - WNW 15 17 8 9 990.8 - -
01/12:30am -5.8 -11.8 -11.1 66 - WNW 15 19 8 10 990.8 - -
01/12:00am -5.5 -12.3 -11.6 62 - WNW 19 22 10 12 990.9 - -
 
Date/Time
EDT
Temp
°C
App
Temp
°C
Dew
Point
Rel
Hum
%
Delta-T
°C
Wind Press
QNH
hPa
Press
MSL
hPa
Rain
since 9 am
mm
Dir
 
Spd
km/h
Gust
km/h
Spd
kts
Gust
kts
31/11:30pm -5.2 -11.5 -10.5 66 - WNW 17 22 9 12 990.8 - -
31/11:00pm -5.0 -11.9 -10.2 67 - NW 20 24 11 13 990.6 991.0 -
31/10:30pm -4.6 -11.2 -9.6 68 - NNW 19 24 10 13 990.7 - -
31/10:00pm -4.4 -10.9 -8.0 76 - NNW 19 26 10 14 990.8 - -
31/09:30pm -4.4 -11.1 -7.5 79 - N 20 26 11 14 990.7 - -
31/09:00pm -4.6 -11.7 -7.8 78 - NNW 22 33 12 18 990.9 - -
31/08:30pm -4.1 -10.7 -7.0 80 - N 20 32 11 17 991.0 - -
31/08:00pm -4.1 -11.9 -7.4 78 - NNW 26 35 14 19 991.1 991.5 -
31/07:30pm -3.7 -12.2 -7.1 77 - N 30 41 16 22 990.9 - -
31/07:00pm -3.4 -10.0 -7.0 76 - N 20 28 11 15 990.9 - -
31/06:30pm -3.6 -11.3 -6.7 79 - N 26 33 14 18 990.9 - -
31/06:00pm -3.3 -10.6 -6.2 80 - NNE 24 32 13 17 991.0 - -
31/05:30pm -3.5 -11.2 -6.6 79 - N 26 30 14 16 991.2 - -
31/05:00pm -3.4 -10.0 -6.8 77 - N 20 24 11 13 991.5 991.9 -
31/04:30pm -3.6 -10.1 -7.4 75 - N 19 24 10 13 991.5 - -
31/04:00pm -2.8 -8.8 -6.9 73 - N 17 20 9 11 991.5 - -
31/03:30pm -3.0 -9.0 -7.0 74 - NNW 17 22 9 12 991.6 - -
31/03:00pm -2.8 -8.8 -6.8 74 - N 17 22 9 12 991.5 - -
31/02:30pm -3.1 -9.1 -6.9 75 - NNW 17 22 9 12 991.6 - -
31/02:00pm -3.4 -9.4 -6.8 77 - NNW 17 20 9 11 991.5 991.9 -
31/01:30pm -3.3 -9.3 -6.7 77 - NNW 17 24 9 13 991.5 - -
31/01:00pm -3.6 -9.7 -7.2 76 - NNW 17 22 9 12 991.7 - -
31/12:30pm -3.3 -9.3 -6.9 76 - NNW 17 22 9 12 991.7 - -
31/12:00pm -3.2 -8.8 -6.6 77 - NNW 15 20 8 11 991.6 - -
31/11:30am -3.3 -9.4 -7.3 74 - NNE 17 20 9 11 991.6 - -
31/11:00am -4.2 -10.0 -8.1 74 - NNE 15 20 8 11 991.4 991.8 -
31/10:30am -4.9 -11.1 -8.6 75 - NE 17 20 9 11 991.3 - -
31/10:00am -5.6 -12.2 -9.8 72 - NE 19 20 10 11 991.3 - -
31/09:30am -5.3 -10.5 -10.8 65 - NE 11 17 6 9 991.3 - -
31/09:00am -4.8 -9.3 -11.3 60 - NE 7 11 4 6 991.1 - -
31/08:30am -5.0 -10.2 -10.2 67 - NNE 11 17 6 9 990.7 - -
31/08:00am -5.1 -10.3 -10.3 67 - NE 11 17 6 9 990.5 990.9 -
31/07:30am -5.0 -9.8 -10.7 64 - ENE 9 17 5 9 990.6 - -
31/07:00am -7.0 -11.3 -11.7 69 - SSE 6 9 3 5 990.4 - -
31/06:30am -7.5 -12.8 -11.7 72 - S 11 13 6 7 990.2 - -
31/06:00am -5.2 -13.0 -12.1 58 - E 24 32 13 17 990.0 - -
31/05:30am -5.0 -12.7 -11.7 59 - E 24 30 13 16 989.9 - -
31/05:00am -4.7 -12.4 -11.9 57 - E 24 30 13 16 989.7 990.1 -
31/04:30am -5.6 -14.5 -12.3 59 - E 30 33 16 18 989.4 - -
31/04:00am -5.9 -12.9 -12.0 62 - E 20 26 11 14 989.4 - -
31/03:30am -7.4 -12.7 -12.1 69 - S 11 15 6 8 989.4 - -
31/03:00am -6.2 -13.0 -11.5 66 - SSE 19 22 10 12 989.2 - -
31/02:30am -5.7 -12.1 -11.8 62 - SSE 17 20 9 11 988.9 - -
31/02:00am -4.2 -9.5 -12.6 52 - SE 11 17 6 9 988.9 989.3 -
31/01:30am -4.0 -8.5 -12.1 53 - NE 7 11 4 6 988.9 - -
31/01:00am -4.2 -8.1 -11.9 55 - ENE 4 15 2 8 988.9 - -
31/12:30am -3.8 -8.1 -11.3 56 - E 6 7 3 4 988.9 - -
31/12:00am -3.0 -6.5 -11.0 54 - SE 2 7 1 4 989.0 - -
 
Date/Time
EDT
Temp
°C
App
Temp
°C
Dew
Point
Rel
Hum
%
Delta-T
°C
Wind Press
QNH
hPa
Press
MSL
hPa
Rain
since 9 am
mm
Dir
 
Spd
km/h
Gust
km/h
Spd
kts
Gust
kts
30/11:30pm -2.8 -5.9 -10.1 57 - CALM 0 0 0 0 989.0 - -
30/11:00pm -2.8 -7.5 -9.7 59 - NE 9 13 5 7 988.9 989.3 -
30/10:30pm -1.7 -5.0 -8.9 58 - NW 2 9 1 5 988.9 - -
30/10:00pm -1.1 -5.2 -9.4 53 - NW 6 9 3 5 988.7 - -
30/09:30pm -1.5 -6.7 -10.3 51 - WNW 11 15 6 8 988.5 - -
30/09:00pm -0.8 -5.6 -10.4 48 - WNW 9 15 5 8 988.3 - -
30/08:30pm -1.6 -5.3 -8.5 59 - W 4 13 2 7 988.3 - -
30/08:00pm -1.3 -6.4 -9.4 54 - WNW 11 17 6 9 988.3 988.7 -
30/07:30pm -1.5 -7.7 -9.1 56 - NW 17 26 9 14 988.1 - -
30/07:00pm -1.0 -6.0 -8.2 58 - SSE 11 24 6 13 988.1 - -
30/06:30pm -1.0 -6.2 -10.6 48 - NNW 11 17 6 9 988.3 - -
30/06:00pm -1.2 -6.9 -12.4 42 - SE 13 17 7 9 988.0 - -
30/05:30pm -1.0 -5.4 -10.9 47 - ENE 7 17 4 9 987.7 - -
30/05:00pm -2.3 -9.6 -10.8 52 - S 22 28 12 15 987.5 987.9 -
30/04:30pm -1.9 -8.8 -10.2 53 - S 20 26 11 14 987.4 - -
30/04:00pm -2.2 -10.2 -10.7 52 - SSE 26 32 14 17 987.0 - -
30/03:30pm -3.6 -10.8 -9.6 63 - SSW 22 33 12 18 987.2 - -
30/03:00pm -4.9 -13.3 -10.1 67 - S 28 33 15 18 987.4 - -
30/02:30pm -4.4 -12.0 -9.6 67 - S 24 32 13 17 987.1 - -
30/02:00pm -5.5 -11.4 -9.6 73 - S 15 20 8 11 987.3 987.7 -
30/01:30pm -6.5 -15.3 -10.2 75 - SSE 30 37 16 20 987.2 - -
30/01:00pm -7.2 -18.0 -9.9 81 - SSE 41 48 22 26 986.7 - -
30/12:30pm -6.7 -16.4 -10.4 75 - S 35 43 19 23 986.5 - -
30/12:00pm -5.6 -13.2 -10.4 69 - SSW 24 32 13 17 986.6 - -
30/11:30am -4.3 -9.9 -11.3 58 - SSE 13 19 7 10 986.4 - -
30/11:00am -4.5 -10.2 -13.1 51 - S 13 17 7 9 986.2 986.6 -
30/10:30am -3.7 -11.2 -14.1 44 - ENE 22 33 12 18 986.0 - -
30/10:27am -3.5 -12.1 -14.2 43 - ENE 28 33 15 18 985.8 - -
30/10:20am -4.4 -15.2 -14.5 45 - ESE 39 50 21 27 985.6 - -
30/10:11am -4.2 -12.9 -15.2 42 - E 28 46 15 25 985.9 - -
30/10:00am -4.1 -10.7 -15.1 42 - ENE 17 22 9 12 985.9 - -
30/09:30am -5.3 -12.8 -14.3 49 - SW 22 32 12 17 985.5 - -
30/09:02am -5.8 -15.8 -14.8 49 - S 35 57 19 31 984.5 - -
30/09:00am -5.8 -15.4 -14.8 49 - S 33 44 18 24 984.7 - -
30/08:30am -5.1 -12.3 -15.4 44 - S 20 57 11 31 984.4 - -
30/08:12am -3.9 -13.0 -15.5 40 - S 30 50 16 27 984.0 - -
30/08:10am -4.1 -12.8 -14.8 43 - S 28 39 15 21 984.0 - -
30/08:00am -4.9 -10.7 -15.0 45 - SE 13 19 7 10 984.2 984.6 -
30/07:30am -4.8 -11.4 -15.7 42 - SSE 17 24 9 13 983.6 - -
30/07:00am -6.5 -13.1 -15.4 49 - SW 17 28 9 15 983.3 - -
30/06:37am -5.5 -15.6 -16.3 42 - E 35 44 19 24 982.7 - -
30/06:30am -5.5 -19.8 -16.3 42 - E 57 78 31 42 981.9 - -
30/06:04am -4.6 -19.2 -15.5 42 - E 59 78 32 42 980.6 - -
30/06:00am -4.8 -20.2 -16.0 41 - E 63 80 34 43 980.5 - -
30/05:39am -5.6 -21.8 -16.4 42 - E 67 87 36 47 980.1 - -
30/05:30am -6.5 -22.3 -16.2 46 - E 65 80 35 43 980.0 - -
30/05:00am -6.6 -22.8 -16.8 44 - E 67 80 36 43 980.3 980.8 -
30/04:35am -6.6 -20.9 -16.8 44 - E 57 65 31 35 981.7 - -
30/04:30am -6.9 -17.8 -16.8 45 - E 39 59 21 32 981.9 - -
30/04:25am -6.5 -17.4 -17.0 43 - E 39 59 21 32 981.8 - -
30/04:19am -6.4 -16.1 -17.2 42 - E 33 44 18 24 982.0 - -
30/04:00am -5.6 -19.9 -17.6 38 - E 57 91 31 49 981.2 - -
30/03:30am -5.9 -21.3 -17.3 40 - E 63 87 34 47 980.0 - -
30/03:14am -5.3 -21.5 -17.0 39 - E 67 87 36 47 979.9 - -
30/03:00am -6.0 -22.6 -16.8 42 - E 69 83 37 45 980.2 - -
30/02:30am -6.6 -22.4 -16.5 45 - E 65 100 35 54 980.2 - -
30/02:00am -5.3 -21.1 -17.3 38 - E 65 95 35 51 979.7 980.2 -
30/01:34am -4.8 -20.6 -17.2 37 - E 65 83 35 45 979.6 - -
30/01:30am -5.2 -21.8 -16.7 40 - E 69 83 37 45 979.6 - -
30/01:00am -4.6 -21.2 -17.0 37 - E 69 87 37 47 979.4 - -
30/12:30am -5.2 -22.7 -16.4 41 - E 74 98 40 53 979.3 - -
30/12:00am -5.3 -21.1 -15.9 43 - E 65 83 35 45 979.7 - -
 
Date/Time
EDT
Temp
°C
App
Temp
°C
Dew
Point
Rel
Hum
%
Delta-T
°C
Wind Press
QNH
hPa
Press
MSL
hPa
Rain
since 9 am
mm
Dir
 
Spd
km/h
Gust
km/h
Spd
kts
Gust
kts
29/11:30pm -3.6 -18.3 -17.5 33 - E 59 82 32 44 979.2 - -
29/11:05pm -3.5 -17.2 -17.1 34 - E 54 76 29 41 979.4 - -
29/11:00pm -3.4 -17.5 -17.0 34 - E 56 70 30 38 979.9 980.4 -
29/10:51pm -2.6 -17.7 -17.7 30 - E 61 70 33 38 979.7 - -
29/10:48pm -1.9 -12.9 -19.3 25 - E 39 89 21 48 979.8 - -
29/10:42pm -2.1 -11.7 -19.0 26 - E 32 54 17 29 980.6 - -
29/10:40pm -1.4 -10.3 -18.8 25 - ESE 28 44 15 24 980.7 - -
29/10:35pm -1.0 -8.1 -18.5 25 - NE 19 26 10 14 980.7 - -
29/10:30pm -1.1 -13.4 -19.5 23 - E 46 69 25 37 980.3 - -
29/10:21pm -1.3 -13.0 -19.2 24 - ENE 43 69 23 37 980.2 - -
29/10:15pm -2.0 -15.0 -18.0 28 - E 50 69 27 37 979.8 - -
29/10:00pm -2.3 -16.0 -17.5 30 - E 54 67 29 36 979.7 - -
29/09:51pm -2.2 -16.5 -17.0 31 - E 57 69 31 37 979.9 - -
29/09:42pm -1.8 -12.7 -17.4 29 - E 39 59 21 32 980.4 - -
29/09:38pm -1.9 -12.0 -17.1 30 - E 35 43 19 23 980.5 - -
29/09:30pm -1.3 -7.2 -15.5 33 - NE 13 15 7 8 980.9 - -
29/09:00pm -1.1 -6.2 -16.0 31 - E 9 19 5 10 980.8 - -
29/08:32pm -0.9 -10.4 -16.7 29 - E 32 57 17 31 980.2 - -
29/08:30pm -1.0 -9.8 -17.2 28 - E 28 39 15 21 980.6 - -
29/08:27pm -1.3 -10.8 -16.2 31 - ENE 32 44 17 24 980.8 - -
29/08:20pm -1.6 -13.8 -16.9 30 - E 46 59 25 32 980.5 - -
29/08:04pm -1.1 -18.0 -20.6 21 - E 70 91 38 49 978.8 - -
29/08:00pm -2.0 -18.7 -16.1 33 - E 70 87 38 47 978.6 979.1 -
29/07:50pm -1.1 -16.2 -17.7 27 - E 61 83 33 45 979.6 - -
29/07:30pm -1.8 -11.9 -17.0 30 - ESE 35 63 19 34 980.9 - -
29/07:27pm -2.2 -12.3 -16.3 33 - ESE 35 63 19 34 980.9 - -
29/07:24pm -2.1 -17.9 -15.8 34 - E 65 83 35 45 980.0 - -
29/07:23pm -1.9 -12.4 -16.4 32 - E 37 83 20 45 980.4 - -
29/07:22pm -1.8 -11.3 -16.3 32 - E 32 52 17 28 980.8 - -
29/07:19pm -1.7 -10.9 -17.4 29 - E 30 44 16 24 980.7 - -
29/07:00pm -1.5 -13.1 -16.8 30 - ENE 43 69 23 37 980.2 - -
29/06:58pm -1.5 -14.1 -17.6 28 - ENE 48 69 26 37 980.1 - -
29/06:57pm -1.1 -14.5 -17.2 28 - ENE 52 69 28 37 979.9 - -
29/06:46pm -0.6 -12.9 -20.2 21 - E 46 89 25 48 979.7 - -
29/06:31pm 0.2 -9.1 -20.1 20 - E 30 56 16 30 980.7 - -
29/06:30pm -0.8 -8.4 -17.0 28 - SE 22 33 12 18 980.6 - -
29/06:15pm -1.4 -10.2 -16.3 31 - SW 28 52 15 28 980.6 - -
29/06:00pm -2.3 -9.3 -15.6 35 - W 19 26 10 14 980.5 - -
29/05:47pm -1.9 -12.0 -16.4 32 - SE 35 70 19 38 980.3 - -
29/05:46pm -2.0 -12.8 -15.7 34 - E 39 61 21 33 980.1 - -
29/05:45pm -1.7 -13.3 -16.2 32 - NE 43 61 23 33 979.5 - -
29/05:37pm 0.4 -11.9 -20.5 19 - E 46 85 25 46 979.6 - -
29/05:30pm -1.2 -10.8 -18.7 25 - SE 32 59 17 32 980.6 - -
29/05:19pm -1.1 -17.9 -17.2 28 - E 70 113 38 61 978.5 - -
29/05:04pm -1.3 -19.1 -15.8 32 - E 76 95 41 51 978.5 - -
29/05:02pm -1.7 -15.6 -13.8 39 - E 56 80 30 43 979.7 - -
29/05:00pm -1.7 -15.0 -15.5 34 - E 52 69 28 37 980.0 980.5 -
29/04:57pm -1.4 -10.0 -13.8 38 - ENE 28 57 15 31 980.9 - -
29/04:30pm -2.4 -10.5 -12.1 47 - S 26 43 14 23 981.4 - -

Other Formats:

Comma delimited format used in spreadsheet applications
http://www.bom.gov.au/fwo/IDT60803/IDT60803.89611.axf

JavaScript Object Notation format (JSON) in row-major order
http://www.bom.gov.au/fwo/IDT60803/IDT60803.89611.json